sensor_id;sensor_type;location;lat;lon;timestamp;P1;durP1;ratioP1;P2;durP2;ratioP2
14681;SDS011;7429;52.498;13.480;2023-02-28T00:01:05;7.03;;;5.70;;
14681;SDS011;7429;52.498;13.480;2023-02-28T00:04:08;7.97;;;5.60;;
14681;SDS011;7429;52.498;13.480;2023-02-28T00:07:11;7.00;;;6.17;;
14681;SDS011;7429;52.498;13.480;2023-02-28T00:10:16;8.20;;;6.43;;
14681;SDS011;7429;52.498;13.480;2023-02-28T00:13:23;8.47;;;6.70;;
14681;SDS011;7429;52.498;13.480;2023-02-28T00:16:26;8.40;;;7.60;;
14681;SDS011;7429;52.498;13.480;2023-02-28T00:19:30;7.83;;;6.63;;
14681;SDS011;7429;52.498;13.480;2023-02-28T00:22:33;7.23;;;6.60;;
14681;SDS011;7429;52.498;13.480;2023-02-28T00:25:37;10.80;;;6.73;;
14681;SDS011;7429;52.498;13.480;2023-02-28T00:28:42;8.03;;;6.90;;
14681;SDS011;7429;52.498;13.480;2023-02-28T00:31:45;7.93;;;6.50;;
14681;SDS011;7429;52.498;13.480;2023-02-28T00:34:48;7.77;;;6.00;;
14681;SDS011;7429;52.498;13.480;2023-02-28T00:37:51;9.50;;;6.80;;
14681;SDS011;7429;52.498;13.480;2023-02-28T00:40:55;9.13;;;7.00;;
14681;SDS011;7429;52.498;13.480;2023-02-28T00:44:00;7.93;;;7.10;;
14681;SDS011;7429;52.498;13.480;2023-02-28T00:47:06;8.17;;;6.13;;
14681;SDS011;7429;52.498;13.480;2023-02-28T00:50:10;7.33;;;6.63;;
14681;SDS011;7429;52.498;13.480;2023-02-28T00:53:13;10.27;;;6.53;;
14681;SDS011;7429;52.498;13.480;2023-02-28T00:56:16;9.73;;;7.47;;
14681;SDS011;7429;52.498;13.480;2023-02-28T00:59:22;9.03;;;6.83;;
14681;SDS011;7429;52.498;13.480;2023-02-28T01:02:25;8.90;;;7.07;;
14681;SDS011;7429;52.498;13.480;2023-02-28T01:05:29;7.97;;;7.17;;
14681;SDS011;7429;52.498;13.480;2023-02-28T01:08:32;8.27;;;7.40;;
14681;SDS011;7429;52.498;13.480;2023-02-28T01:11:37;9.63;;;7.23;;
14681;SDS011;7429;52.498;13.480;2023-02-28T01:14:45;9.70;;;6.77;;
14681;SDS011;7429;52.498;13.480;2023-02-28T01:17:48;10.00;;;7.40;;
14681;SDS011;7429;52.498;13.480;2023-02-28T01:20:51;8.50;;;7.30;;
14681;SDS011;7429;52.498;13.480;2023-02-28T01:23:56;10.57;;;7.73;;
14681;SDS011;7429;52.498;13.480;2023-02-28T01:27:00;9.03;;;7.77;;
14681;SDS011;7429;52.498;13.480;2023-02-28T01:30:05;8.27;;;7.47;;
14681;SDS011;7429;52.498;13.480;2023-02-28T01:33:10;8.57;;;7.47;;
14681;SDS011;7429;52.498;13.480;2023-02-28T01:36:14;9.17;;;6.77;;
14681;SDS011;7429;52.498;13.480;2023-02-28T01:39:19;8.73;;;7.50;;
14681;SDS011;7429;52.498;13.480;2023-02-28T01:42:24;10.83;;;7.13;;
14681;SDS011;7429;52.498;13.480;2023-02-28T01:45:29;11.90;;;7.73;;
14681;SDS011;7429;52.498;13.480;2023-02-28T01:48:34;11.87;;;6.97;;
14681;SDS011;7429;52.498;13.480;2023-02-28T01:51:44;11.57;;;7.90;;
14681;SDS011;7429;52.498;13.480;2023-02-28T01:54:54;8.63;;;7.70;;
14681;SDS011;7429;52.498;13.480;2023-02-28T01:58:00;10.83;;;7.30;;
14681;SDS011;7429;52.498;13.480;2023-02-28T02:01:08;8.43;;;7.20;;
14681;SDS011;7429;52.498;13.480;2023-02-28T02:04:22;9.17;;;7.57;;
14681;SDS011;7429;52.498;13.480;2023-02-28T02:07:29;9.93;;;7.47;;
14681;SDS011;7429;52.498;13.480;2023-02-28T02:10:35;8.77;;;7.33;;
14681;SDS011;7429;52.498;13.480;2023-02-28T02:13:50;9.33;;;7.93;;
14681;SDS011;7429;52.498;13.480;2023-02-28T02:17:16;10.10;;;8.50;;
14681;SDS011;7429;52.498;13.480;2023-02-28T02:20:51;11.07;;;7.70;;
14681;SDS011;7429;52.498;13.480;2023-02-28T02:24:43;11.50;;;8.10;;
14681;SDS011;7429;52.498;13.480;2023-02-28T02:28:33;10.90;;;8.67;;
14681;SDS011;7429;52.498;13.480;2023-02-28T02:35:33;13.70;;;9.43;;
14681;SDS011;7429;52.498;13.480;2023-02-28T02:38:45;10.40;;;8.30;;
14681;SDS011;7429;52.498;13.480;2023-02-28T02:41:53;10.70;;;8.60;;
14681;SDS011;7429;52.498;13.480;2023-02-28T02:44:58;10.70;;;8.53;;
14681;SDS011;7429;52.498;13.480;2023-02-28T02:48:06;11.73;;;9.07;;
14681;SDS011;7429;52.498;13.480;2023-02-28T02:51:16;10.93;;;8.70;;
14681;SDS011;7429;52.498;13.480;2023-02-28T02:54:23;10.07;;;8.40;;
14681;SDS011;7429;52.498;13.480;2023-02-28T02:57:32;15.90;;;8.97;;
14681;SDS011;7429;52.498;13.480;2023-02-28T03:00:41;11.90;;;8.70;;
14681;SDS011;7429;52.498;13.480;2023-02-28T03:03:48;11.40;;;8.73;;
14681;SDS011;7429;52.498;13.480;2023-02-28T03:06:53;10.23;;;8.13;;
14681;SDS011;7429;52.498;13.480;2023-02-28T03:09:57;11.57;;;8.30;;
14681;SDS011;7429;52.498;13.480;2023-02-28T03:13:04;10.87;;;8.70;;
14681;SDS011;7429;52.498;13.480;2023-02-28T03:16:25;10.87;;;8.40;;
14681;SDS011;7429;52.498;13.480;2023-02-28T03:19:45;15.10;;;9.60;;
14681;SDS011;7429;52.498;13.480;2023-02-28T03:22:59;9.80;;;8.33;;
14681;SDS011;7429;52.498;13.480;2023-02-28T03:26:17;11.43;;;9.20;;
14681;SDS011;7429;52.498;13.480;2023-02-28T03:29:26;9.43;;;8.43;;
14681;SDS011;7429;52.498;13.480;2023-02-28T03:32:36;9.63;;;8.57;;
14681;SDS011;7429;52.498;13.480;2023-02-28T03:35:47;9.90;;;8.97;;
14681;SDS011;7429;52.498;13.480;2023-02-28T03:38:56;12.23;;;8.93;;
14681;SDS011;7429;52.498;13.480;2023-02-28T03:42:04;13.83;;;8.70;;
14681;SDS011;7429;52.498;13.480;2023-02-28T03:45:13;11.10;;;8.20;;
14681;SDS011;7429;52.498;13.480;2023-02-28T03:48:21;9.80;;;8.33;;
14681;SDS011;7429;52.498;13.480;2023-02-28T03:51:30;11.27;;;8.73;;
14681;SDS011;7429;52.498;13.480;2023-02-28T03:54:37;9.17;;;8.20;;
14681;SDS011;7429;52.498;13.480;2023-02-28T03:57:48;18.37;;;10.20;;
14681;SDS011;7429;52.498;13.480;2023-02-28T04:01:01;14.17;;;8.87;;
14681;SDS011;7429;52.498;13.480;2023-02-28T04:04:11;10.37;;;9.17;;
14681;SDS011;7429;52.498;13.480;2023-02-28T04:07:15;13.93;;;9.73;;
14681;SDS011;7429;52.498;13.480;2023-02-28T04:10:21;11.17;;;9.70;;
14681;SDS011;7429;52.498;13.480;2023-02-28T04:13:24;12.67;;;9.43;;
14681;SDS011;7429;52.498;13.480;2023-02-28T04:16:27;11.63;;;9.60;;
14681;SDS011;7429;52.498;13.480;2023-02-28T04:19:36;11.67;;;9.17;;
14681;SDS011;7429;52.498;13.480;2023-02-28T04:22:39;13.20;;;9.27;;
14681;SDS011;7429;52.498;13.480;2023-02-28T04:25:43;12.67;;;10.20;;
14681;SDS011;7429;52.498;13.480;2023-02-28T04:28:46;15.07;;;9.20;;
14681;SDS011;7429;52.498;13.480;2023-02-28T04:31:52;13.87;;;9.87;;
14681;SDS011;7429;52.498;13.480;2023-02-28T04:35:01;12.33;;;9.37;;
14681;SDS011;7429;52.498;13.480;2023-02-28T04:38:05;14.83;;;9.03;;
14681;SDS011;7429;52.498;13.480;2023-02-28T04:41:09;12.57;;;9.83;;
14681;SDS011;7429;52.498;13.480;2023-02-28T04:44:13;11.93;;;9.30;;
14681;SDS011;7429;52.498;13.480;2023-02-28T04:47:17;10.93;;;9.33;;
14681;SDS011;7429;52.498;13.480;2023-02-28T04:50:19;12.23;;;9.30;;
14681;SDS011;7429;52.498;13.480;2023-02-28T04:53:23;15.17;;;9.53;;
14681;SDS011;7429;52.498;13.480;2023-02-28T04:56:27;16.33;;;10.27;;
14681;SDS011;7429;52.498;13.480;2023-02-28T04:59:30;20.20;;;10.57;;
14681;SDS011;7429;52.498;13.480;2023-02-28T05:02:34;13.93;;;9.83;;
14681;SDS011;7429;52.498;13.480;2023-02-28T05:05:37;14.00;;;9.60;;
14681;SDS011;7429;52.498;13.480;2023-02-28T05:08:41;14.63;;;9.67;;
14681;SDS011;7429;52.498;13.480;2023-02-28T05:11:45;13.93;;;9.90;;
14681;SDS011;7429;52.498;13.480;2023-02-28T05:14:48;15.63;;;9.57;;
14681;SDS011;7429;52.498;13.480;2023-02-28T05:17:51;16.03;;;9.83;;
14681;SDS011;7429;52.498;13.480;2023-02-28T05:20:54;14.47;;;10.10;;
14681;SDS011;7429;52.498;13.480;2023-02-28T05:23:58;15.73;;;10.27;;
14681;SDS011;7429;52.498;13.480;2023-02-28T05:27:04;13.10;;;9.70;;
14681;SDS011;7429;52.498;13.480;2023-02-28T05:30:08;13.37;;;10.30;;
14681;SDS011;7429;52.498;13.480;2023-02-28T05:33:12;12.50;;;10.13;;
14681;SDS011;7429;52.498;13.480;2023-02-28T05:36:16;12.77;;;9.90;;
14681;SDS011;7429;52.498;13.480;2023-02-28T05:39:19;11.87;;;9.73;;
14681;SDS011;7429;52.498;13.480;2023-02-28T05:42:25;11.87;;;9.30;;
14681;SDS011;7429;52.498;13.480;2023-02-28T05:45:28;14.83;;;11.47;;
14681;SDS011;7429;52.498;13.480;2023-02-28T05:48:31;17.07;;;10.90;;
14681;SDS011;7429;52.498;13.480;2023-02-28T05:51:35;14.43;;;10.27;;
14681;SDS011;7429;52.498;13.480;2023-02-28T05:54:41;15.40;;;10.67;;
14681;SDS011;7429;52.498;13.480;2023-02-28T05:57:46;16.03;;;10.37;;
14681;SDS011;7429;52.498;13.480;2023-02-28T06:00:49;13.23;;;10.43;;
14681;SDS011;7429;52.498;13.480;2023-02-28T06:03:52;15.13;;;10.50;;
14681;SDS011;7429;52.498;13.480;2023-02-28T06:06:55;12.27;;;10.03;;
14681;SDS011;7429;52.498;13.480;2023-02-28T06:09:59;15.93;;;10.83;;
14681;SDS011;7429;52.498;13.480;2023-02-28T06:13:04;14.33;;;10.57;;
14681;SDS011;7429;52.498;13.480;2023-02-28T06:16:07;13.80;;;10.20;;
14681;SDS011;7429;52.498;13.480;2023-02-28T06:19:12;15.77;;;10.63;;
14681;SDS011;7429;52.498;13.480;2023-02-28T06:22:16;24.60;;;11.13;;
14681;SDS011;7429;52.498;13.480;2023-02-28T06:25:19;17.60;;;10.97;;
14681;SDS011;7429;52.498;13.480;2023-02-28T06:28:23;14.17;;;10.43;;
14681;SDS011;7429;52.498;13.480;2023-02-28T06:31:27;21.20;;;11.67;;
14681;SDS011;7429;52.498;13.480;2023-02-28T06:34:31;14.30;;;11.70;;
14681;SDS011;7429;52.498;13.480;2023-02-28T06:37:35;14.33;;;10.40;;
14681;SDS011;7429;52.498;13.480;2023-02-28T06:40:42;15.83;;;10.73;;
14681;SDS011;7429;52.498;13.480;2023-02-28T06:43:46;16.97;;;11.07;;
14681;SDS011;7429;52.498;13.480;2023-02-28T06:46:49;15.97;;;11.27;;
14681;SDS011;7429;52.498;13.480;2023-02-28T06:49:52;16.33;;;11.33;;
14681;SDS011;7429;52.498;13.480;2023-02-28T06:52:55;17.97;;;11.67;;
14681;SDS011;7429;52.498;13.480;2023-02-28T06:55:58;16.60;;;11.47;;
14681;SDS011;7429;52.498;13.480;2023-02-28T06:59:03;15.30;;;11.33;;
14681;SDS011;7429;52.498;13.480;2023-02-28T07:02:07;20.10;;;11.87;;
14681;SDS011;7429;52.498;13.480;2023-02-28T07:05:10;18.07;;;12.17;;
14681;SDS011;7429;52.498;13.480;2023-02-28T07:08:14;17.10;;;12.73;;
14681;SDS011;7429;52.498;13.480;2023-02-28T07:11:17;14.17;;;10.60;;
14681;SDS011;7429;52.498;13.480;2023-02-28T07:14:22;17.23;;;11.87;;
14681;SDS011;7429;52.498;13.480;2023-02-28T07:17:26;22.20;;;13.30;;
14681;SDS011;7429;52.498;13.480;2023-02-28T07:20:29;18.77;;;12.13;;
14681;SDS011;7429;52.498;13.480;2023-02-28T07:23:33;20.57;;;12.60;;
14681;SDS011;7429;52.498;13.480;2023-02-28T07:26:36;18.03;;;13.03;;
14681;SDS011;7429;52.498;13.480;2023-02-28T07:29:41;20.10;;;13.40;;
14681;SDS011;7429;52.498;13.480;2023-02-28T07:32:44;20.37;;;12.20;;
14681;SDS011;7429;52.498;13.480;2023-02-28T07:35:47;21.33;;;12.17;;
14681;SDS011;7429;52.498;13.480;2023-02-28T07:38:50;20.90;;;12.90;;
14681;SDS011;7429;52.498;13.480;2023-02-28T07:41:54;17.40;;;10.90;;
14681;SDS011;7429;52.498;13.480;2023-02-28T07:45:01;11.97;;;10.17;;
14681;SDS011;7429;52.498;13.480;2023-02-28T07:48:05;15.17;;;10.93;;
14681;SDS011;7429;52.498;13.480;2023-02-28T07:51:11;15.77;;;10.43;;
14681;SDS011;7429;52.498;13.480;2023-02-28T07:54:15;13.63;;;10.13;;
14681;SDS011;7429;52.498;13.480;2023-02-28T07:57:18;13.97;;;9.77;;
14681;SDS011;7429;52.498;13.480;2023-02-28T08:00:23;14.33;;;9.10;;
14681;SDS011;7429;52.498;13.480;2023-02-28T08:03:26;12.50;;;8.97;;
14681;SDS011;7429;52.498;13.480;2023-02-28T08:06:29;13.43;;;8.20;;
14681;SDS011;7429;52.498;13.480;2023-02-28T08:09:33;8.77;;;7.87;;
14681;SDS011;7429;52.498;13.480;2023-02-28T08:12:36;10.43;;;8.60;;
14681;SDS011;7429;52.498;13.480;2023-02-28T08:15:41;9.53;;;6.67;;
14681;SDS011;7429;52.498;13.480;2023-02-28T08:18:46;9.40;;;6.93;;
14681;SDS011;7429;52.498;13.480;2023-02-28T08:21:50;7.13;;;6.53;;
14681;SDS011;7429;52.498;13.480;2023-02-28T08:24:53;8.50;;;6.63;;
14681;SDS011;7429;52.498;13.480;2023-02-28T08:27:56;9.43;;;6.80;;
14681;SDS011;7429;52.498;13.480;2023-02-28T08:31:00;8.63;;;7.73;;
14681;SDS011;7429;52.498;13.480;2023-02-28T08:34:11;9.63;;;6.80;;
14681;SDS011;7429;52.498;13.480;2023-02-28T08:37:17;6.40;;;5.80;;
14681;SDS011;7429;52.498;13.480;2023-02-28T08:40:20;8.10;;;6.50;;
14681;SDS011;7429;52.498;13.480;2023-02-28T08:43:23;6.80;;;6.13;;
14681;SDS011;7429;52.498;13.480;2023-02-28T08:46:28;7.73;;;6.33;;
14681;SDS011;7429;52.498;13.480;2023-02-28T08:49:31;6.87;;;6.03;;
14681;SDS011;7429;52.498;13.480;2023-02-28T08:52:34;6.83;;;6.23;;
14681;SDS011;7429;52.498;13.480;2023-02-28T08:55:38;7.07;;;5.80;;
14681;SDS011;7429;52.498;13.480;2023-02-28T08:58:41;6.63;;;6.03;;
14681;SDS011;7429;52.498;13.480;2023-02-28T09:01:45;6.20;;;5.60;;
14681;SDS011;7429;52.498;13.480;2023-02-28T09:04:48;6.63;;;5.90;;
14681;SDS011;7429;52.498;13.480;2023-02-28T09:07:51;4.57;;;4.27;;
14681;SDS011;7429;52.498;13.480;2023-02-28T09:10:55;5.43;;;4.80;;
14681;SDS011;7429;52.498;13.480;2023-02-28T09:14:00;7.70;;;5.00;;
14681;SDS011;7429;52.498;13.480;2023-02-28T09:17:05;5.67;;;5.17;;
14681;SDS011;7429;52.498;13.480;2023-02-28T09:20:09;8.17;;;6.07;;
14681;SDS011;7429;52.498;13.480;2023-02-28T09:23:14;5.90;;;5.30;;
14681;SDS011;7429;52.498;13.480;2023-02-28T09:26:18;5.90;;;5.33;;
14681;SDS011;7429;52.498;13.480;2023-02-28T09:29:24;5.73;;;5.00;;
14681;SDS011;7429;52.498;13.480;2023-02-28T09:32:29;5.43;;;4.93;;
14681;SDS011;7429;52.498;13.480;2023-02-28T09:35:32;5.17;;;4.77;;
14681;SDS011;7429;52.498;13.480;2023-02-28T09:38:35;5.97;;;5.23;;
14681;SDS011;7429;52.498;13.480;2023-02-28T09:41:39;5.67;;;5.17;;
14681;SDS011;7429;52.498;13.480;2023-02-28T09:44:49;6.17;;;5.60;;
14681;SDS011;7429;52.498;13.480;2023-02-28T09:47:55;5.83;;;5.23;;
14681;SDS011;7429;52.498;13.480;2023-02-28T09:51:02;5.23;;;4.70;;
14681;SDS011;7429;52.498;13.480;2023-02-28T09:54:14;6.20;;;5.10;;
14681;SDS011;7429;52.498;13.480;2023-02-28T09:57:21;4.60;;;4.17;;
14681;SDS011;7429;52.498;13.480;2023-02-28T10:00:36;4.97;;;4.57;;
14681;SDS011;7429;52.498;13.480;2023-02-28T10:03:44;5.53;;;5.00;;
14681;SDS011;7429;52.498;13.480;2023-02-28T10:06:56;4.80;;;4.33;;
14681;SDS011;7429;52.498;13.480;2023-02-28T10:09:59;4.20;;;3.90;;
14681;SDS011;7429;52.498;13.480;2023-02-28T10:13:15;7.00;;;4.30;;
14681;SDS011;7429;52.498;13.480;2023-02-28T10:16:25;4.00;;;3.60;;
14681;SDS011;7429;52.498;13.480;2023-02-28T10:19:38;5.50;;;4.37;;
14681;SDS011;7429;52.498;13.480;2023-02-28T10:22:50;3.90;;;3.60;;
14681;SDS011;7429;52.498;13.480;2023-02-28T10:25:57;17.47;;;4.63;;
14681;SDS011;7429;52.498;13.480;2023-02-28T10:29:03;5.47;;;4.20;;
14681;SDS011;7429;52.498;13.480;2023-02-28T10:32:06;4.83;;;4.40;;
14681;SDS011;7429;52.498;13.480;2023-02-28T10:35:15;4.13;;;3.83;;
14681;SDS011;7429;52.498;13.480;2023-02-28T10:38:22;5.23;;;4.73;;
14681;SDS011;7429;52.498;13.480;2023-02-28T10:41:30;4.70;;;4.30;;
14681;SDS011;7429;52.498;13.480;2023-02-28T10:44:36;5.17;;;4.23;;
14681;SDS011;7429;52.498;13.480;2023-02-28T10:47:41;6.47;;;4.37;;
14681;SDS011;7429;52.498;13.480;2023-02-28T10:50:56;5.40;;;4.83;;
14681;SDS011;7429;52.498;13.480;2023-02-28T10:54:01;4.70;;;4.30;;
14681;SDS011;7429;52.498;13.480;2023-02-28T10:57:08;5.00;;;4.60;;
14681;SDS011;7429;52.498;13.480;2023-02-28T11:00:20;5.63;;;4.83;;
14681;SDS011;7429;52.498;13.480;2023-02-28T11:03:29;5.57;;;4.90;;
14681;SDS011;7429;52.498;13.480;2023-02-28T11:06:36;6.47;;;4.73;;
14681;SDS011;7429;52.498;13.480;2023-02-28T11:09:40;6.63;;;5.13;;
14681;SDS011;7429;52.498;13.480;2023-02-28T11:12:45;5.73;;;5.13;;
14681;SDS011;7429;52.498;13.480;2023-02-28T11:15:54;6.50;;;5.47;;
14681;SDS011;7429;52.498;13.480;2023-02-28T11:19:00;7.90;;;5.50;;
14681;SDS011;7429;52.498;13.480;2023-02-28T11:22:06;7.10;;;5.33;;
14681;SDS011;7429;52.498;13.480;2023-02-28T11:25:16;5.70;;;5.10;;
14681;SDS011;7429;52.498;13.480;2023-02-28T11:28:26;6.33;;;4.87;;
14681;SDS011;7429;52.498;13.480;2023-02-28T11:31:32;7.03;;;4.30;;
14681;SDS011;7429;52.498;13.480;2023-02-28T11:34:35;6.77;;;4.83;;
14681;SDS011;7429;52.498;13.480;2023-02-28T11:37:42;5.83;;;5.23;;
14681;SDS011;7429;52.498;13.480;2023-02-28T11:40:48;6.40;;;5.13;;
14681;SDS011;7429;52.498;13.480;2023-02-28T11:44:12;5.83;;;5.10;;
14681;SDS011;7429;52.498;13.480;2023-02-28T11:47:28;5.10;;;4.10;;
14681;SDS011;7429;52.498;13.480;2023-02-28T11:50:44;9.80;;;5.20;;
14681;SDS011;7429;52.498;13.480;2023-02-28T11:54:11;5.70;;;4.60;;
14681;SDS011;7429;52.498;13.480;2023-02-28T11:57:57;6.20;;;5.03;;
14681;SDS011;7429;52.498;13.480;2023-02-28T12:01:14;6.40;;;5.27;;
14681;SDS011;7429;52.498;13.480;2023-02-28T12:04:32;6.80;;;4.80;;
14681;SDS011;7429;52.498;13.480;2023-02-28T12:07:47;7.30;;;5.70;;
14681;SDS011;7429;52.498;13.480;2023-02-28T12:11:09;6.40;;;5.10;;
14681;SDS011;7429;52.498;13.480;2023-02-28T12:14:25;5.57;;;4.77;;
14681;SDS011;7429;52.498;13.480;2023-02-28T12:18:10;4.60;;;4.10;;
14681;SDS011;7429;52.498;13.480;2023-02-28T12:21:38;4.93;;;4.30;;
14681;SDS011;7429;52.498;13.480;2023-02-28T12:25:13;4.23;;;3.83;;
14681;SDS011;7429;52.498;13.480;2023-02-28T12:28:34;5.40;;;4.50;;
14681;SDS011;7429;52.498;13.480;2023-02-28T12:31:41;6.80;;;4.80;;
14681;SDS011;7429;52.498;13.480;2023-02-28T12:34:52;6.53;;;3.97;;
14681;SDS011;7429;52.498;13.480;2023-02-28T12:38:02;5.87;;;4.60;;
14681;SDS011;7429;52.498;13.480;2023-02-28T12:41:12;7.87;;;4.53;;
14681;SDS011;7429;52.498;13.480;2023-02-28T12:44:21;7.50;;;4.87;;
14681;SDS011;7429;52.498;13.480;2023-02-28T12:47:31;5.37;;;4.03;;
14681;SDS011;7429;52.498;13.480;2023-02-28T12:50:35;4.97;;;4.50;;
14681;SDS011;7429;52.498;13.480;2023-02-28T12:53:42;4.93;;;4.47;;
14681;SDS011;7429;52.498;13.480;2023-02-28T12:57:02;6.63;;;4.07;;
14681;SDS011;7429;52.498;13.480;2023-02-28T13:00:13;6.30;;;4.00;;
14681;SDS011;7429;52.498;13.480;2023-02-28T13:03:32;5.37;;;4.30;;
14681;SDS011;7429;52.498;13.480;2023-02-28T13:07:10;6.43;;;4.73;;
14681;SDS011;7429;52.498;13.480;2023-02-28T13:10:43;5.23;;;4.77;;
14681;SDS011;7429;52.498;13.480;2023-02-28T13:13:48;7.07;;;4.90;;
14681;SDS011;7429;52.498;13.480;2023-02-28T13:17:09;8.33;;;4.93;;
14681;SDS011;7429;52.498;13.480;2023-02-28T13:20:15;7.73;;;4.90;;
14681;SDS011;7429;52.498;13.480;2023-02-28T13:23:37;5.23;;;4.70;;
14681;SDS011;7429;52.498;13.480;2023-02-28T13:31:02;7.43;;;4.90;;
14681;SDS011;7429;52.498;13.480;2023-02-28T13:34:15;5.33;;;4.13;;
14681;SDS011;7429;52.498;13.480;2023-02-28T13:37:32;5.77;;;4.93;;
14681;SDS011;7429;52.498;13.480;2023-02-28T13:40:38;6.90;;;4.83;;
14681;SDS011;7429;52.498;13.480;2023-02-28T13:47:22;7.27;;;4.67;;
14681;SDS011;7429;52.498;13.480;2023-02-28T13:50:33;5.83;;;4.27;;
14681;SDS011;7429;52.498;13.480;2023-02-28T13:53:42;5.30;;;4.80;;
14681;SDS011;7429;52.498;13.480;2023-02-28T13:57:06;5.40;;;4.73;;
14681;SDS011;7429;52.498;13.480;2023-02-28T14:00:25;7.37;;;4.83;;
14681;SDS011;7429;52.498;13.480;2023-02-28T14:03:46;7.43;;;5.47;;
14681;SDS011;7429;52.498;13.480;2023-02-28T14:07:06;7.57;;;4.97;;
14681;SDS011;7429;52.498;13.480;2023-02-28T14:10:15;6.93;;;4.57;;
14681;SDS011;7429;52.498;13.480;2023-02-28T14:13:38;6.53;;;4.20;;
14681;SDS011;7429;52.498;13.480;2023-02-28T14:16:47;4.80;;;4.30;;
14681;SDS011;7429;52.498;13.480;2023-02-28T14:19:51;5.47;;;4.87;;
14681;SDS011;7429;52.498;13.480;2023-02-28T14:22:58;7.47;;;4.77;;
14681;SDS011;7429;52.498;13.480;2023-02-28T14:26:12;7.20;;;5.30;;
14681;SDS011;7429;52.498;13.480;2023-02-28T14:29:42;5.50;;;4.83;;
14681;SDS011;7429;52.498;13.480;2023-02-28T14:33:23;7.60;;;4.90;;
14681;SDS011;7429;52.498;13.480;2023-02-28T14:36:35;5.93;;;4.80;;
14681;SDS011;7429;52.498;13.480;2023-02-28T14:39:41;8.83;;;5.67;;
14681;SDS011;7429;52.498;13.480;2023-02-28T14:42:47;9.17;;;5.27;;
14681;SDS011;7429;52.498;13.480;2023-02-28T14:45:58;7.33;;;5.27;;
14681;SDS011;7429;52.498;13.480;2023-02-28T14:49:04;7.07;;;5.00;;
14681;SDS011;7429;52.498;13.480;2023-02-28T14:52:13;7.37;;;5.70;;
14681;SDS011;7429;52.498;13.480;2023-02-28T14:55:23;7.17;;;5.40;;
14681;SDS011;7429;52.498;13.480;2023-02-28T14:58:30;7.23;;;5.13;;
14681;SDS011;7429;52.498;13.480;2023-02-28T15:01:35;6.83;;;5.10;;
14681;SDS011;7429;52.498;13.480;2023-02-28T15:04:38;6.17;;;4.90;;
14681;SDS011;7429;52.498;13.480;2023-02-28T15:07:43;7.33;;;5.27;;
14681;SDS011;7429;52.498;13.480;2023-02-28T15:10:52;6.20;;;5.60;;
14681;SDS011;7429;52.498;13.480;2023-02-28T15:13:58;7.37;;;5.47;;
14681;SDS011;7429;52.498;13.480;2023-02-28T15:17:03;6.30;;;5.40;;
14681;SDS011;7429;52.498;13.480;2023-02-28T15:20:17;6.43;;;5.53;;
14681;SDS011;7429;52.498;13.480;2023-02-28T15:23:21;7.80;;;5.83;;
14681;SDS011;7429;52.498;13.480;2023-02-28T15:26:26;7.10;;;5.33;;
14681;SDS011;7429;52.498;13.480;2023-02-28T15:29:36;7.97;;;5.33;;
14681;SDS011;7429;52.498;13.480;2023-02-28T15:33:01;8.77;;;5.40;;
14681;SDS011;7429;52.498;13.480;2023-02-28T15:36:12;7.00;;;5.43;;
14681;SDS011;7429;52.498;13.480;2023-02-28T15:39:20;6.27;;;5.67;;
14681;SDS011;7429;52.498;13.480;2023-02-28T15:42:29;5.87;;;5.33;;
14681;SDS011;7429;52.498;13.480;2023-02-28T15:45:34;5.90;;;5.33;;
14681;SDS011;7429;52.498;13.480;2023-02-28T15:48:42;6.10;;;4.80;;
14681;SDS011;7429;52.498;13.480;2023-02-28T15:51:57;8.90;;;5.17;;
14681;SDS011;7429;52.498;13.480;2023-02-28T15:55:07;6.60;;;6.00;;
14681;SDS011;7429;52.498;13.480;2023-02-28T15:58:21;5.27;;;4.77;;
14681;SDS011;7429;52.498;13.480;2023-02-28T16:01:26;6.73;;;6.10;;
14681;SDS011;7429;52.498;13.480;2023-02-28T16:04:33;7.83;;;5.00;;
14681;SDS011;7429;52.498;13.480;2023-02-28T16:07:37;5.63;;;5.13;;
14681;SDS011;7429;52.498;13.480;2023-02-28T16:10:41;7.30;;;5.47;;
14681;SDS011;7429;52.498;13.480;2023-02-28T16:13:45;6.27;;;5.63;;
14681;SDS011;7429;52.498;13.480;2023-02-28T16:16:49;7.53;;;5.07;;
14681;SDS011;7429;52.498;13.480;2023-02-28T16:19:55;6.30;;;5.43;;
14681;SDS011;7429;52.498;13.480;2023-02-28T16:22:59;5.87;;;5.27;;
14681;SDS011;7429;52.498;13.480;2023-02-28T16:26:04;7.13;;;5.57;;
14681;SDS011;7429;52.498;13.480;2023-02-28T16:29:10;8.00;;;6.17;;
14681;SDS011;7429;52.498;13.480;2023-02-28T16:32:21;7.97;;;6.50;;
14681;SDS011;7429;52.498;13.480;2023-02-28T16:35:25;6.93;;;5.83;;
14681;SDS011;7429;52.498;13.480;2023-02-28T16:38:28;8.43;;;7.13;;
14681;SDS011;7429;52.498;13.480;2023-02-28T16:41:31;6.03;;;5.33;;
14681;SDS011;7429;52.498;13.480;2023-02-28T16:44:37;8.10;;;6.00;;
14681;SDS011;7429;52.498;13.480;2023-02-28T16:47:40;8.10;;;5.77;;
14681;SDS011;7429;52.498;13.480;2023-02-28T16:50:43;8.03;;;5.97;;
14681;SDS011;7429;52.498;13.480;2023-02-28T16:53:46;6.23;;;5.33;;
14681;SDS011;7429;52.498;13.480;2023-02-28T16:56:50;8.47;;;6.17;;
14681;SDS011;7429;52.498;13.480;2023-02-28T16:59:54;6.27;;;5.60;;
14681;SDS011;7429;52.498;13.480;2023-02-28T17:02:58;7.87;;;5.20;;
14681;SDS011;7429;52.498;13.480;2023-02-28T17:06:01;7.37;;;6.43;;
14681;SDS011;7429;52.498;13.480;2023-02-28T17:09:05;8.53;;;5.70;;
14681;SDS011;7429;52.498;13.480;2023-02-28T17:12:15;6.83;;;6.03;;
14681;SDS011;7429;52.498;13.480;2023-02-28T17:15:20;8.40;;;6.27;;
14681;SDS011;7429;52.498;13.480;2023-02-28T17:18:23;6.80;;;5.80;;
14681;SDS011;7429;52.498;13.480;2023-02-28T17:21:28;8.00;;;6.33;;
14681;SDS011;7429;52.498;13.480;2023-02-28T17:24:31;10.63;;;6.73;;
14681;SDS011;7429;52.498;13.480;2023-02-28T17:27:35;18.90;;;11.77;;
14681;SDS011;7429;52.498;13.480;2023-02-28T17:30:39;10.10;;;7.27;;
14681;SDS011;7429;52.498;13.480;2023-02-28T17:33:48;12.73;;;8.13;;
14681;SDS011;7429;52.498;13.480;2023-02-28T17:36:51;12.63;;;7.40;;
14681;SDS011;7429;52.498;13.480;2023-02-28T17:39:54;13.17;;;8.07;;
14681;SDS011;7429;52.498;13.480;2023-02-28T17:42:57;9.93;;;7.77;;
14681;SDS011;7429;52.498;13.480;2023-02-28T17:46:02;12.30;;;7.83;;
14681;SDS011;7429;52.498;13.480;2023-02-28T17:49:08;12.80;;;8.00;;
14681;SDS011;7429;52.498;13.480;2023-02-28T17:52:12;10.80;;;7.57;;
14681;SDS011;7429;52.498;13.480;2023-02-28T17:55:15;9.03;;;8.13;;
14681;SDS011;7429;52.498;13.480;2023-02-28T17:58:20;15.40;;;7.23;;
14681;SDS011;7429;52.498;13.480;2023-02-28T18:01:24;13.67;;;7.17;;
14681;SDS011;7429;52.498;13.480;2023-02-28T18:04:29;11.37;;;7.60;;
14681;SDS011;7429;52.498;13.480;2023-02-28T18:07:32;12.73;;;7.90;;
14681;SDS011;7429;52.498;13.480;2023-02-28T18:10:36;9.93;;;7.93;;
14681;SDS011;7429;52.498;13.480;2023-02-28T18:13:39;12.90;;;8.00;;
14681;SDS011;7429;52.498;13.480;2023-02-28T18:16:43;11.90;;;8.60;;
14681;SDS011;7429;52.498;13.480;2023-02-28T18:19:47;11.27;;;7.47;;
14681;SDS011;7429;52.498;13.480;2023-02-28T18:22:51;11.80;;;7.93;;
14681;SDS011;7429;52.498;13.480;2023-02-28T18:25:54;8.80;;;7.90;;
14681;SDS011;7429;52.498;13.480;2023-02-28T18:28:57;13.97;;;8.73;;
14681;SDS011;7429;52.498;13.480;2023-02-28T18:32:01;14.37;;;8.60;;
14681;SDS011;7429;52.498;13.480;2023-02-28T18:35:06;16.20;;;8.80;;
14681;SDS011;7429;52.498;13.480;2023-02-28T18:38:11;13.10;;;8.57;;
14681;SDS011;7429;52.498;13.480;2023-02-28T18:41:17;14.93;;;9.93;;
14681;SDS011;7429;52.498;13.480;2023-02-28T18:44:22;11.50;;;8.23;;
14681;SDS011;7429;52.498;13.480;2023-02-28T18:47:29;13.77;;;9.50;;
14681;SDS011;7429;52.498;13.480;2023-02-28T18:50:33;12.83;;;8.53;;
14681;SDS011;7429;52.498;13.480;2023-02-28T18:53:42;19.87;;;9.47;;